Time;durP1;ratioP1;P1;durP2;ratioP2;P2;SDS_P1;SDS_P2;PMS_P1;PMS_P2;Temp;Humidity;BMP_temperature;BMP_pressure;BME280_temperature;BME280_humidity;BME280_pressure;Samples;Min_cycle;Max_cycle;Signal;HPM_P1;HPM_P2
2023/05/20 00:02:31;;;;;;;57.05;30.02;;;;;;;12.86;100.00;100449.25;4870207;29;20079;-77
2023/05/20 00:05:15;;;;;;;57.42;30.77;;;;;;;12.82;100.00;100440.06;4866382;29;20053;-77
2023/05/20 00:07:59;;;;;;;58.90;29.95;;;;;;;12.87;100.00;100440.34;4867341;29;20113;-77
2023/05/20 00:10:43;;;;;;;55.40;29.52;;;;;;;12.80;100.00;100447.31;4866969;29;20121;-77
2023/05/20 00:13:27;;;;;;;54.88;30.55;;;;;;;12.74;100.00;100445.38;4873086;29;20403;-78
2023/05/20 00:16:11;;;;;;;56.15;29.30;;;;;;;12.67;100.00;100446.06;4871313;29;20044;-78
2023/05/20 00:18:56;;;;;;;51.22;29.13;;;;;;;12.66;100.00;100435.69;4860227;29;20514;-78
2023/05/20 00:21:40;;;;;;;52.53;29.70;;;;;;;12.56;100.00;100442.03;4871527;29;20047;-77
2023/05/20 00:24:24;;;;;;;57.08;28.98;;;;;;;12.59;100.00;100446.13;4868287;29;20056;-77
2023/05/20 00:27:08;;;;;;;51.90;30.40;;;;;;;12.54;100.00;100433.47;4873122;29;20044;-78
2023/05/20 00:29:52;;;;;;;55.88;30.83;;;;;;;12.61;100.00;100433.59;4873608;29;20055;-78
2023/05/20 00:32:36;;;;;;;56.53;31.15;;;;;;;12.65;100.00;100439.31;4869374;29;20093;-77
2023/05/20 00:35:20;;;;;;;56.85;29.52;;;;;;;12.54;100.00;100443.16;4867410;29;20552;-78
2023/05/20 00:38:04;;;;;;;49.42;26.95;;;;;;;12.37;100.00;100447.72;4871097;29;20063;-78
2023/05/20 00:40:48;;;;;;;39.67;22.23;;;;;;;12.32;100.00;100445.59;4866686;29;20052;-77
2023/05/20 00:43:32;;;;;;;40.45;20.90;;;;;;;12.28;100.00;100439.03;4867906;29;20048;-77
2023/05/20 00:46:16;;;;;;;38.72;20.13;;;;;;;12.30;100.00;100442.31;4870034;29;20502;-78
2023/05/20 00:49:00;;;;;;;40.17;21.42;;;;;;;12.28;100.00;100444.28;4870454;29;20044;-78
2023/05/20 00:51:46;;;;;;;40.35;21.25;;;;;;;12.16;100.00;100435.94;4870418;29;20117;-77
2023/05/20 00:54:31;;;;;;;43.08;21.98;;;;;;;11.99;100.00;100419.38;4869852;29;20103;-78
2023/05/20 00:57:15;;;;;;;41.33;22.00;;;;;;;12.07;100.00;100443.03;4872013;29;20055;-78
2023/05/20 00:59:59;;;;;;;39.92;22.23;;;;;;;12.00;100.00;100444.69;4871526;29;20068;-77
2023/05/20 01:02:44;;;;;;;42.45;23.58;;;;;;;12.02;100.00;100448.00;4867945;29;20075;-77
2023/05/20 01:05:28;;;;;;;44.70;23.15;;;;;;;11.84;100.00;100451.63;4869605;29;20036;-78
2023/05/20 01:08:13;;;;;;;42.97;23.23;;;;;;;11.64;100.00;100459.06;4871908;29;20138;-78
2023/05/20 01:11:05;;;;;;;46.05;23.60;;;;;;;11.76;100.00;100456.91;4868573;29;20412;-79
2023/05/20 01:13:54;;;;;;;42.63;22.45;;;;;;;11.73;100.00;100451.16;4882150;29;20155;-78
2023/05/20 01:16:38;;;;;;;42.67;23.83;;;;;;;11.75;100.00;100442.09;4868564;29;20408;-78
2023/05/20 01:19:38;;;;;;;40.85;23.00;;;;;;;11.70;100.00;100441.78;4874177;29;20065;-77
2023/05/20 01:22:25;;;;;;;46.45;23.75;;;;;;;11.55;100.00;100441.66;4870062;29;20044;-78
2023/05/20 01:25:09;;;;;;;46.88;23.17;;;;;;;11.61;100.00;100450.69;4869777;29;20124;-77
2023/05/20 01:27:54;;;;;;;44.50;22.98;;;;;;;11.52;100.00;100445.44;4870564;29;20163;-77
2023/05/20 01:30:50;;;;;;;45.78;21.80;;;;;;;11.48;100.00;100441.50;4872956;29;20047;-77
2023/05/20 01:33:36;;;;;;;42.15;21.65;;;;;;;11.41;100.00;100438.69;4869023;29;20044;-78
2023/05/20 01:36:21;;;;;;;44.15;22.38;;;;;;;11.39;100.00;100445.94;4870249;29;20049;-78
2023/05/20 01:39:06;;;;;;;47.92;24.05;;;;;;;11.33;100.00;100435.25;4867529;29;20044;-77
2023/05/20 01:41:51;;;;;;;37.00;19.25;;;;;;;11.31;100.00;100443.31;4866241;29;20072;-77
2023/05/20 01:44:35;;;;;;;42.65;21.85;;;;;;;11.31;100.00;100443.31;4871442;29;20104;-77
2023/05/20 01:47:19;;;;;;;36.28;19.88;;;;;;;11.26;100.00;100449.06;4867010;29;20051;-77
2023/05/20 01:50:04;;;;;;;36.40;20.35;;;;;;;11.24;100.00;100443.16;4867780;29;20048;-76
2023/05/20 01:52:48;;;;;;;34.05;18.42;;;;;;;11.20;100.00;100436.59;4867538;29;20052;-78
2023/05/20 01:55:33;;;;;;;36.88;18.75;;;;;;;11.19;100.00;100445.44;4867282;29;20048;-77
2023/05/20 01:58:17;;;;;;;33.38;18.92;;;;;;;11.18;100.00;100445.59;4876156;29;20052;-77
2023/05/20 02:01:01;;;;;;;34.08;18.00;;;;;;;11.13;100.00;100451.34;4871526;29;20231;-78
2023/05/20 02:03:45;;;;;;;33.88;18.23;;;;;;;11.09;100.00;100434.25;4862664;29;20052;-77
2023/05/20 02:06:29;;;;;;;35.83;18.33;;;;;;;11.15;100.00;100452.00;4868505;29;20048;-78
2023/05/20 02:09:13;;;;;;;36.65;18.55;;;;;;;11.14;100.00;100451.19;4869555;29;20040;-77
2023/05/20 02:11:57;;;;;;;34.67;18.08;;;;;;;11.03;100.00;100442.81;4866221;29;20039;-77
2023/05/20 02:14:45;;;;;;;38.80;20.17;;;;;;;11.08;100.00;100448.38;4869600;29;20053;-76
2023/05/20 02:17:30;;;;;;;37.33;19.95;;;;;;;11.06;100.00;100450.38;4868100;29;20070;-77
2023/05/20 02:20:15;;;;;;;52.67;23.52;;;;;;;11.06;100.00;100442.47;4869127;29;20102;-77
2023/05/20 02:22:59;;;;;;;43.35;21.35;;;;;;;11.04;100.00;100444.44;4870612;29;20071;-77
2023/05/20 02:25:43;;;;;;;43.28;22.00;;;;;;;10.86;100.00;100445.41;4870199;29;20061;-78
2023/05/20 02:28:27;;;;;;;46.22;23.17;;;;;;;10.64;100.00;100436.31;4865477;29;20056;-77
2023/05/20 02:31:12;;;;;;;49.60;23.70;;;;;;;10.65;100.00;100438.81;4875951;29;20105;-77
2023/05/20 02:33:56;;;;;;;50.28;26.92;;;;;;;10.75;100.00;100435.19;4870587;29;20145;-77
2023/05/20 02:36:40;;;;;;;46.17;25.55;;;;;;;10.75;100.00;100432.56;4870418;29;20055;-78
2023/05/20 02:39:24;;;;;;;56.42;27.17;;;;;;;10.83;100.00;100436.03;4871197;29;20072;-78
2023/05/20 02:42:07;;;;;;;54.08;28.95;;;;;;;10.87;100.00;100436.53;4867515;29;20068;-78
2023/05/20 02:44:55;;;;;;;58.30;28.08;;;;;;;10.79;100.00;100429.47;4866356;29;20068;-77
2023/05/20 02:47:39;;;;;;;51.85;26.55;;;;;;;10.73;100.00;100424.03;4871248;29;20056;-78
2023/05/20 02:50:23;;;;;;;55.20;29.02;;;;;;;10.63;100.00;100438.13;4866987;29;20048;-78
2023/05/20 02:53:07;;;;;;;55.90;28.55;;;;;;;10.41;100.00;100416.72;4868766;29;20052;-78
2023/05/20 02:55:52;;;;;;;54.55;29.10;;;;;;;10.65;100.00;100427.47;4864755;29;20044;-77
2023/05/20 02:58:36;;;;;;;56.53;29.65;;;;;;;10.65;100.00;100427.47;4865581;29;20093;-77
2023/05/20 03:01:19;;;;;;;67.05;30.23;;;;;;;10.56;100.00;100424.00;4866033;29;20044;-78
2023/05/20 03:04:03;;;;;;;66.78;31.77;;;;;;;10.46;100.00;100420.69;4868620;29;20067;-78
2023/05/20 03:06:47;;;;;;;60.78;29.83;;;;;;;10.39;100.00;100408.16;4865161;29;20056;-78
2023/05/20 03:09:32;;;;;;;68.15;32.30;;;;;;;10.39;100.00;100423.91;4869641;29;20556;-78
2023/05/20 03:12:16;;;;;;;76.25;33.47;;;;;;;10.34;100.00;100434.06;4867654;29;20400;-78
2023/05/20 03:15:01;;;;;;;64.65;32.88;;;;;;;10.32;100.00;100407.16;4874275;29;20526;-78
2023/05/20 03:17:45;;;;;;;72.32;34.90;;;;;;;10.31;100.00;100405.50;4870112;29;20048;-77
2023/05/20 03:20:31;;;;;;;86.93;35.15;;;;;;;10.32;100.00;100406.31;4865624;29;20064;-78
2023/05/20 03:23:15;;;;;;;66.70;31.92;;;;;;;10.31;100.00;100405.50;4869413;29;20459;-79
2023/05/20 03:25:59;;;;;;;73.05;33.83;;;;;;;10.34;100.00;100409.63;4872568;29;20044;-77
2023/05/20 03:28:44;;;;;;;63.13;32.05;;;;;;;10.40;100.00;100420.31;4867701;29;20123;-77
2023/05/20 03:31:28;;;;;;;71.03;34.50;;;;;;;10.27;100.00;100419.94;4871348;29;20407;-77
2023/05/20 03:34:12;;;;;;;61.47;29.83;;;;;;;10.27;100.00;100419.94;4868518;29;20105;-77
2023/05/20 03:36:56;;;;;;;59.22;28.90;;;;;;;10.20;100.00;100425.00;4874316;29;20080;-77
2023/05/20 03:39:40;;;;;;;61.55;29.48;;;;;;;10.13;100.00;100409.06;4872514;29;20108;-77
2023/05/20 03:42:24;;;;;;;54.95;27.98;;;;;;;10.15;100.00;100422.84;4869398;29;20056;-77
2023/05/20 03:45:09;;;;;;;64.30;30.35;;;;;;;10.30;100.00;100419.63;4867837;29;20037;-77
2023/05/20 03:47:53;;;;;;;70.63;31.00;;;;;;;10.52;100.00;100417.41;4870669;29;20164;-76
2023/05/20 03:50:37;;;;;;;70.53;30.38;;;;;;;10.83;100.00;100419.47;4871698;29;20052;-77
2023/05/20 03:53:21;;;;;;;76.47;33.03;;;;;;;10.97;100.00;100416.19;4875371;29;20044;-78
2023/05/20 03:56:06;;;;;;;74.28;32.67;;;;;;;11.09;100.00;100413.25;4869552;29;20047;-78
2023/05/20 03:58:50;;;;;;;70.10;31.52;;;;;;;11.06;100.00;100424.09;4872329;29;20100;-78
2023/05/20 04:01:34;;;;;;;75.00;32.67;;;;;;;11.29;100.00;100419.81;4869060;29;20526;-79
2023/05/20 04:04:19;;;;;;;58.35;28.00;;;;;;;11.31;100.00;100416.19;4874401;29;20097;-79
2023/05/20 04:07:06;;;;;;;65.40;31.35;;;;;;;11.36;100.00;100427.03;4872140;29;20047;-78
2023/05/20 04:09:51;;;;;;;71.57;32.28;;;;;;;11.54;100.00;100416.34;4872503;29;20114;-78
2023/05/20 04:12:37;;;;;;;68.20;32.25;;;;;;;11.65;100.00;100423.06;4866963;29;20057;-77
2023/05/20 04:15:22;;;;;;;65.63;31.15;;;;;;;11.64;100.00;100410.91;4874827;29;20101;-78
2023/05/20 04:18:06;;;;;;;68.78;32.35;;;;;;;11.71;100.00;100406.59;4872133;29;20450;-77
2023/05/20 04:20:55;;;;;;;68.70;31.77;;;;;;;11.91;100.00;100416.75;4867746;29;20052;-78
2023/05/20 04:23:39;;;;;;;73.65;33.25;;;;;;;11.92;100.00;100415.75;4871436;29;20403;-78
2023/05/20 04:26:23;;;;;;;76.15;37.45;;;;;;;11.90;100.00;100410.69;4868585;29;20404;-78
2023/05/20 04:29:07;;;;;;;77.65;36.05;;;;;;;12.04;100.00;100424.97;4869595;29;20080;-78
2023/05/20 04:31:51;;;;;;;77.78;38.22;;;;;;;12.04;100.00;100408.34;4877570;29;20045;-78
2023/05/20 04:34:36;;;;;;;78.03;35.10;;;;;;;11.97;100.00;100426.59;4871844;29;20472;-79
2023/05/20 04:37:21;;;;;;;70.65;36.40;;;;;;;12.14;100.00;100417.69;4864780;29;20140;-78
2023/05/20 04:40:06;;;;;;;75.88;36.88;;;;;;;11.97;100.00;100414.25;4873549;29;20088;-78
2023/05/20 04:42:51;;;;;;;73.97;35.47;;;;;;;11.48;100.00;100412.56;4870167;29;20075;-78
2023/05/20 04:45:35;;;;;;;66.20;32.60;;;;;;;11.86;100.00;100412.81;4865983;29;20118;-78
2023/05/20 04:48:19;;;;;;;69.95;33.88;;;;;;;12.17;100.00;100415.69;4869887;29;20043;-77
2023/05/20 04:51:03;;;;;;;66.40;33.10;;;;;;;12.12;100.00;100409.13;4872799;29;20044;-78
2023/05/20 04:53:49;;;;;;;75.40;33.40;;;;;;;12.10;100.00;100413.75;4873870;29;20060;-77
2023/05/20 04:56:35;;;;;;;67.45;30.38;;;;;;;12.04;100.00;100411.81;4874112;29;20080;-78
2023/05/20 04:59:19;;;;;;;56.40;29.95;;;;;;;12.33;100.00;100415.63;4870046;29;20059;-77
2023/05/20 05:02:03;;;;;;;52.92;28.98;;;;;;;12.39;100.00;100407.06;4869422;29;20114;-78
2023/05/20 05:04:48;;;;;;;54.60;29.67;;;;;;;12.54;100.00;100406.28;4866213;29;20097;-76
2023/05/20 05:07:32;;;;;;;59.10;29.33;;;;;;;12.16;100.00;100414.06;4870242;29;20185;-76
2023/05/20 05:10:16;;;;;;;64.68;30.88;;;;;;;12.32;100.00;100408.72;4867718;29;20049;-78
2023/05/20 05:13:00;;;;;;;62.22;31.95;;;;;;;12.43;100.00;100405.72;4867162;29;20060;-77
2023/05/20 05:15:44;;;;;;;70.80;33.38;;;;;;;12.10;100.00;100411.13;4867785;29;20079;-77
2023/05/20 05:18:29;;;;;;;59.25;31.48;;;;;;;12.36;100.00;100396.84;4866713;29;20089;-78
2023/05/20 05:21:13;;;;;;;62.78;30.65;;;;;;;12.35;100.00;100407.56;4872359;29;20052;-80
2023/05/20 05:23:57;;;;;;;56.25;29.08;;;;;;;12.46;100.00;100409.78;4869143;29;20044;-79
2023/05/20 05:26:41;;;;;;;69.60;32.17;;;;;;;11.81;100.00;100411.69;4871117;29;20440;-78
2023/05/20 05:29:25;;;;;;;68.15;31.67;;;;;;;12.35;100.00;100412.84;4870226;29;20060;-78
2023/05/20 05:32:09;;;;;;;60.30;31.40;;;;;;;12.43;100.00;100416.25;4864912;29;20404;-77
2023/05/20 05:34:53;;;;;;;69.05;32.15;;;;;;;12.40;100.00;100416.59;4872896;29;20480;-79
2023/05/20 05:37:37;;;;;;;67.72;33.65;;;;;;;12.65;100.00;100412.97;4875411;29;20416;-79
2023/05/20 05:40:21;;;;;;;71.05;34.83;;;;;;;12.29;100.00;100419.59;4866048;29;20141;-78
2023/05/20 05:43:04;;;;;;;75.35;35.55;;;;;;;12.15;100.00;100418.50;4873354;29;20056;-78
2023/05/20 05:45:48;;;;;;;72.45;35.03;;;;;;;12.25;100.00;100426.22;4866879;29;20060;-79
2023/05/20 05:48:32;;;;;;;69.32;36.08;;;;;;;12.70;100.00;100418.56;4864787;29;20087;-80
2023/05/20 05:51:16;;;;;;;68.93;36.05;;;;;;;12.42;100.00;100409.34;4864587;29;20096;-79
2023/05/20 05:54:00;;;;;;;64.47;33.15;;;;;;;11.99;100.00;100406.22;4868372;29;20067;-80
2023/05/20 05:56:44;;;;;;;73.70;34.53;;;;;;;12.35;100.00;100424.16;4866777;29;20052;-80
2023/05/20 05:59:28;;;;;;;74.85;35.17;;;;;;;12.26;100.00;100419.94;4865642;29;20043;-79
2023/05/20 06:02:13;;;;;;;69.15;32.60;;;;;;;12.80;100.00;100420.97;4868324;29;20075;-80
2023/05/20 06:04:58;;;;;;;72.65;35.17;;;;;;;12.25;100.00;100423.56;4869175;29;20108;-81
2023/05/20 06:07:42;;;;;;;73.15;36.10;;;;;;;12.39;100.00;100412.31;4870374;29;20060;-82
2023/05/20 06:10:26;;;;;;;75.40;36.08;;;;;;;12.94;100.00;100417.56;4867882;29;20048;-82
2023/05/20 06:13:10;;;;;;;65.45;33.03;;;;;;;12.48;100.00;100407.00;4866806;29;20061;-81
2023/05/20 06:15:54;;;;;;;67.55;34.65;;;;;;;12.30;100.00;100410.72;4866953;29;20079;-80
2023/05/20 06:18:38;;;;;;;76.25;35.08;;;;;;;12.20;100.00;100420.66;4871821;29;20080;-80
2023/05/20 06:21:22;;;;;;;71.72;34.80;;;;;;;12.48;100.00;100425.44;4866220;29;20127;-80
2023/05/20 06:24:06;;;;;;;74.78;35.00;;;;;;;12.27;100.00;100426.84;4866603;29;20047;-80
2023/05/20 06:26:51;;;;;;;80.68;35.90;;;;;;;12.20;100.00;100412.75;4869909;29;20048;-80
2023/05/20 06:29:35;;;;;;;76.32;35.53;;;;;;;12.04;100.00;100405.72;4871360;29;20068;-79
2023/05/20 06:32:19;;;;;;;;;;;;;;;12.09;100.00;100425.28;4862526;29;20068;-81
2023/05/20 06:35:03;;;;;;;76.00;33.88;;;;;;;11.75;100.00;100423.69;4869338;29;19922;-78
2023/05/20 06:37:47;;;;;;;66.93;32.15;;;;;;;12.17;100.00;100421.78;4871490;29;20512;-80
2023/05/20 06:40:31;;;;;;;70.78;34.03;;;;;;;12.23;100.00;100405.31;4867341;29;20392;-82
2023/05/20 06:43:16;;;;;;;70.82;34.58;;;;;;;12.18;100.00;100422.59;4870658;29;20052;-80
2023/05/20 06:46:00;;;;;;;73.28;34.85;;;;;;;12.88;100.00;100418.28;4872086;29;20063;-80
2023/05/20 06:48:44;;;;;;;65.05;33.28;;;;;;;13.16;100.00;100417.72;4871534;29;20044;-81
2023/05/20 06:51:28;;;;;;;72.60;33.75;;;;;;;13.29;100.00;100412.69;4870894;29;20056;-81
2023/05/20 06:54:12;;;;;;;66.53;33.38;;;;;;;13.11;100.00;100418.28;4871416;29;20047;-81
2023/05/20 06:56:56;;;;;;;75.55;35.28;;;;;;;12.92;100.00;100408.22;4864574;29;20458;-81
2023/05/20 06:59:40;;;;;;;70.68;34.95;;;;;;;12.86;100.00;100392.09;4872856;29;20088;-80
2023/05/20 07:02:24;;;;;;;71.05;35.22;;;;;;;13.25;100.00;100408.75;4871980;29;20412;-83
2023/05/20 07:05:08;;;;;;;75.22;35.08;;;;;;;13.02;100.00;100406.16;4872513;29;20073;-80
2023/05/20 07:07:52;;;;;;;66.60;34.50;;;;;;;13.42;100.00;100395.44;4874815;29;20048;-80
2023/05/20 07:10:37;;;;;;;71.53;34.88;;;;;;;12.93;100.00;100410.66;4868797;29;20064;-80
2023/05/20 07:13:22;;;;;;;70.95;36.40;;;;;;;12.91;100.00;100412.66;4870045;29;20109;-80
2023/05/20 07:16:07;;;;;;;71.20;35.47;;;;;;;13.02;100.00;100390.31;4869114;29;20044;-82
2023/05/20 07:18:51;;;;;;;68.82;34.80;;;;;;;13.03;100.00;100399.06;4875651;29;20098;-85
2023/05/20 07:21:35;;;;;;;67.50;35.50;;;;;;;13.33;100.00;100378.88;4871361;29;20055;-85
2023/05/20 07:24:19;;;;;;;54.70;29.40;;;;;;;13.61;100.00;100395.94;4869119;29;20044;-86
2023/05/20 07:27:03;;;;;;;60.45;29.98;;;;;;;13.22;100.00;100393.31;4869812;29;20048;-83
2023/05/20 07:29:47;;;;;;;58.78;29.13;;;;;;;13.56;100.00;100405.22;4872163;29;20044;-83
2023/05/20 07:32:31;;;;;;;51.03;27.25;;;;;;;13.89;100.00;100393.50;4871253;29;20158;-84
2023/05/20 07:35:15;;;;;;;45.30;24.85;;;;;;;13.79;100.00;100403.50;4869062;29;20056;-82
2023/05/20 07:38:00;;;;;;;56.90;28.00;;;;;;;13.74;100.00;100406.66;4869622;29;20527;-83
2023/05/20 07:40:44;;;;;;;57.70;28.80;;;;;;;13.86;100.00;100399.16;4869882;29;20076;-84
2023/05/20 07:43:28;;;;;;;57.33;28.92;;;;;;;13.85;100.00;100405.38;4869693;29;20129;-82
2023/05/20 07:46:12;;;;;;;56.03;28.02;;;;;;;13.77;100.00;100402.84;4872158;29;20049;-81
2023/05/20 07:48:56;;;;;;;63.20;29.88;;;;;;;13.68;100.00;100400.31;4870192;29;20810;-83
2023/05/20 07:51:40;;;;;;;66.28;32.88;;;;;;;13.38;100.00;100397.59;4869612;29;20120;-82
2023/05/20 07:54:25;;;;;;;60.15;30.67;;;;;;;13.16;100.00;100394.00;4870239;29;20530;-80
2023/05/20 07:57:09;;;;;;;64.88;31.20;;;;;;;14.10;100.00;100402.50;4870318;29;20083;-80
2023/05/20 07:59:53;;;;;;;52.55;29.08;;;;;;;14.25;100.00;100397.19;4871137;29;20063;-78
2023/05/20 08:02:38;;;;;;;54.50;27.83;;;;;;;13.97;100.00;100395.22;4873255;29;20056;-80
2023/05/20 08:05:22;;;;;;;58.08;26.73;;;;;;;14.31;100.00;100399.06;4870468;29;20056;-78
2023/05/20 08:08:07;;;;;;;51.80;26.10;;;;;;;14.06;100.00;100399.38;4870276;29;20052;-81
2023/05/20 08:10:51;;;;;;;48.35;24.50;;;;;;;14.31;100.00;100383.22;4870191;29;20128;-80
2023/05/20 08:13:35;;;;;;;52.53;25.70;;;;;;;14.75;100.00;100402.63;4868019;29;20056;-80
2023/05/20 08:16:21;;;;;;;52.05;25.88;;;;;;;14.60;100.00;100388.59;4871427;29;20173;-81
2023/05/20 08:19:05;;;;;;;53.85;25.15;;;;;;;14.65;100.00;100388.88;4868545;29;20060;-80
2023/05/20 08:21:49;;;;;;;37.17;21.15;;;;;;;14.76;100.00;100395.53;4869755;29;20093;-81
2023/05/20 08:24:33;;;;;;;43.33;21.88;;;;;;;14.91;100.00;100385.69;4868784;29;20101;-80
2023/05/20 08:27:17;;;;;;;42.22;22.02;;;;;;;14.91;100.00;100390.97;4870107;29;20419;-82
2023/05/20 08:30:01;;;;;;;45.03;22.10;;;;;;;14.94;100.00;100380.03;4873433;29;20142;-82
2023/05/20 08:32:47;;;;;;;39.35;21.45;;;;;;;15.17;100.00;100386.94;4871954;29;20048;-82
2023/05/20 08:35:31;;;;;;;48.35;22.77;;;;;;;15.24;100.00;100379.84;4866452;29;20518;-84
2023/05/20 08:38:15;;;;;;;43.00;21.95;;;;;;;15.02;100.00;100394.91;4876993;29;20052;-83
2023/05/20 08:40:59;;;;;;;40.90;20.75;;;;;;;15.19;100.00;100382.25;4873101;29;20048;-81
2023/05/20 08:43:43;;;;;;;36.88;18.27;;;;;;;15.55;100.00;100393.69;4868679;29;20177;-81
2023/05/20 08:46:30;;;;;;;32.65;17.80;;;;;;;15.43;100.00;100388.13;4866600;29;20393;-83
2023/05/20 08:49:14;;;;;;;37.05;17.20;;;;;;;15.49;100.00;100397.13;4869213;29;20097;-83
2023/05/20 08:52:00;;;;;;;32.20;17.98;;;;;;;15.37;100.00;100394.19;4865360;29;20052;-81
2023/05/20 08:54:47;;;;;;;32.70;15.73;;;;;;;15.65;100.00;100390.69;4868951;29;20121;-81
2023/05/20 08:57:32;;;;;;;37.22;17.58;;;;;;;15.71;100.00;100387.25;4869046;29;20044;-81
2023/05/20 09:00:17;;;;;;;34.40;16.60;;;;;;;15.45;100.00;100386.09;4871286;29;20047;-80
2023/05/20 09:03:03;;;;;;;24.15;13.15;;;;;;;15.92;100.00;100380.31;4869163;29;20102;-81
2023/05/20 09:05:47;;;;;;;23.67;13.18;;;;;;;16.10;100.00;100372.59;4868116;29;20075;-83
2023/05/20 09:08:32;;;;;;;30.92;15.45;;;;;;;15.66;100.00;100381.75;4871183;29;20162;-82
2023/05/20 09:11:16;;;;;;;22.88;12.25;;;;;;;16.42;100.00;100388.81;4870086;29;20047;-83
2023/05/20 09:14:00;;;;;;;26.02;14.02;;;;;;;16.21;100.00;100383.66;4870047;29;20079;-81
2023/05/20 09:16:44;;;;;;;20.73;10.77;;;;;;;15.73;97.69;100384.44;4868303;29;20120;-82
2023/05/20 09:19:29;;;;;;;28.75;12.60;;;;;;;16.12;97.63;100389.16;4871150;29;20384;-80
2023/05/20 09:22:13;;;;;;;25.45;12.27;;;;;;;16.31;96.93;100386.78;4870034;29;20056;-81
2023/05/20 09:24:57;;;;;;;26.17;12.88;;;;;;;16.33;95.08;100392.69;4868527;29;20060;-83
2023/05/20 09:27:41;;;;;;;25.17;13.07;;;;;;;16.40;96.61;100377.59;4872933;29;20052;-83
2023/05/20 09:30:25;;;;;;;25.35;14.73;;;;;;;16.51;97.50;100362.16;4869196;29;20109;-83
2023/05/20 09:33:11;;;;;;;25.13;14.07;;;;;;;16.80;100.00;100376.88;4865588;29;20106;-82
2023/05/20 09:36:07;;;;;;;29.65;15.70;;;;;;;16.44;95.76;100361.31;4868098;29;20101;-83
2023/05/20 09:38:53;;;;;;;26.13;12.90;;;;;;;16.39;95.97;100367.19;4876846;29;20404;-82
2023/05/20 09:41:43;;;;;;;18.58;11.85;;;;;;;16.79;95.30;100369.13;4866348;29;20507;-81
2023/05/20 09:44:28;;;;;;;18.48;10.70;;;;;;;16.81;93.49;100361.75;4876027;29;20052;-82
2023/05/20 09:47:14;;;;;;;19.17;11.25;;;;;;;16.68;94.26;100370.53;4868052;29;20463;-82
2023/05/20 09:49:59;;;;;;;16.60;9.30;;;;;;;16.40;90.04;100366.19;4867241;29;20040;-83
2023/05/20 09:52:43;;;;;;;16.00;8.55;;;;;;;16.45;90.35;100354.97;4865436;29;20084;-82
2023/05/20 09:55:29;;;;;;;12.93;9.13;;;;;;;16.65;89.53;100347.06;4867902;29;20075;-81
2023/05/20 09:58:14;;;;;;;13.90;9.60;;;;;;;17.01;90.34;100342.41;4869480;29;20044;-82
2023/05/20 10:00:59;;;;;;;14.13;9.15;;;;;;;17.25;87.88;100347.09;4866104;29;20097;-82
2023/05/20 10:03:44;;;;;;;18.70;7.97;;;;;;;17.32;88.02;100352.38;4869274;29;20044;-82
2023/05/20 10:06:33;;;;;;;13.10;8.77;;;;;;;17.61;89.38;100347.63;4870132;29;20120;-82
2023/05/20 10:09:23;;;;;;;13.75;8.98;;;;;;;17.50;88.10;100351.75;4866230;29;20052;-83
2023/05/20 10:12:35;;;;;;;18.50;10.35;;;;;;;16.98;88.04;100340.94;4868212;29;20048;-82
2023/05/20 10:15:25;;;;;;;17.77;8.70;;;;;;;16.77;84.93;100348.09;4863432;29;20402;-83
2023/05/20 10:18:21;;;;;;;13.68;9.15;;;;;;;17.22;86.52;100342.19;4868723;29;20060;-87
2023/05/20 10:21:16;;;;;;;18.65;9.82;;;;;;;17.37;87.65;100338.50;4866409;29;20044;-87
2023/05/20 10:24:10;;;;;;;19.98;10.10;;;;;;;17.34;86.51;100337.06;4873387;29;20133;-86
2023/05/20 10:26:54;;;;;;;20.25;10.63;;;;;;;17.78;84.42;100326.72;4877615;29;20052;-85
2023/05/20 10:29:52;;;;;;;16.70;9.27;;;;;;;17.97;84.18;100329.53;4868994;29;20069;-84
2023/05/20 10:32:47;;;;;;;18.33;10.45;;;;;;;17.53;85.19;100327.44;4867125;29;20142;-84
2023/05/20 10:35:31;;;;;;;19.40;9.85;;;;;;;17.99;83.95;100327.47;4872079;29;20520;-87
2023/05/20 10:38:15;;;;;;;15.68;9.10;;;;;;;18.23;83.40;100323.28;4872487;29;20113;-87
2023/05/20 10:41:12;;;;;;;18.17;10.48;;;;;;;17.94;82.72;100316.66;4874704;29;20048;-87
2023/05/20 10:44:00;;;;;;;20.98;10.63;;;;;;;18.15;84.25;100301.47;4873046;29;20132;-83
2023/05/20 10:46:44;;;;;;;26.98;15.40;;;;;;;18.17;82.64;100310.84;4873676;29;20048;-82
2023/05/20 10:49:33;;;;;;;28.00;15.48;;;;;;;18.60;80.31;100314.66;4872850;29;20093;-82
2023/05/20 10:52:19;;;;;;;22.15;12.32;;;;;;;18.22;83.45;100308.38;4864637;29;20523;-83
2023/05/20 10:55:03;;;;;;;20.33;13.10;;;;;;;18.03;82.80;100304.78;4870885;29;20101;-81
2023/05/20 10:57:47;;;;;;;22.65;14.25;;;;;;;18.21;80.70;100312.06;4866304;29;20199;-81
2023/05/20 11:00:36;;;;;;;22.20;13.25;;;;;;;18.62;81.40;100304.59;4870434;29;20048;-82
2023/05/20 11:03:21;;;;;;;19.02;11.02;;;;;;;18.89;83.64;100306.22;4867126;29;20117;-82
2023/05/20 11:06:17;;;;;;;21.92;10.70;;;;;;;18.44;81.66;100293.91;4866155;29;20090;-82
2023/05/20 11:09:05;;;;;;;17.85;10.65;;;;;;;18.41;81.56;100301.28;4868206;29;20139;-83
2023/05/20 11:11:51;;;;;;;22.40;11.00;;;;;;;18.05;79.21;100292.09;4870116;29;20511;-83
2023/05/20 11:14:35;;;;;;;17.42;9.45;;;;;;;18.27;78.80;100286.44;4871619;29;20056;-82
2023/05/20 11:17:19;;;;;;;12.15;8.95;;;;;;;18.64;78.63;100281.25;4866645;29;20048;-82
2023/05/20 11:20:03;;;;;;;18.95;10.18;;;;;;;18.68;78.52;100287.81;4873082;29;20092;-81
2023/05/20 11:22:49;;;;;;;15.15;10.48;;;;;;;18.53;81.10;100281.97;4869724;29;20085;-80
2023/05/20 11:25:33;;;;;;;16.75;10.10;;;;;;;19.06;79.32;100290.53;4869797;29;20169;-80
2023/05/20 11:28:20;;;;;;;16.17;10.63;;;;;;;19.09;80.18;100280.28;4865875;29;20061;-81
2023/05/20 11:31:04;;;;;;;15.05;9.93;;;;;;;19.14;79.84;100279.63;4868187;29;20065;-80
2023/05/20 11:33:49;;;;;;;14.85;10.32;;;;;;;19.40;78.83;100272.38;4871252;29;20400;-81
2023/05/20 11:36:33;;;;;;;17.00;10.82;;;;;;;19.41;78.69;100276.66;4870453;29;20044;-79
2023/05/20 11:39:20;;;;;;;15.45;10.25;;;;;;;19.70;79.97;100272.41;4872801;29;20044;-79
2023/05/20 11:42:05;;;;;;;15.05;10.20;;;;;;;19.17;79.33;100273.06;4874033;29;20052;-80
2023/05/20 11:44:49;;;;;;;15.52;10.45;;;;;;;18.91;79.52;100267.75;4869837;29;20096;-79
2023/05/20 11:47:33;;;;;;;20.90;10.18;;;;;;;18.69;80.23;100267.31;4874046;29;20051;-78
2023/05/20 11:50:17;;;;;;;17.83;11.43;;;;;;;19.01;79.95;100277.09;4869381;29;20048;-78
2023/05/20 11:53:02;;;;;;;17.08;10.40;;;;;;;19.36;79.06;100255.22;4863518;29;20102;-79
2023/05/20 11:56:01;;;;;;;16.98;11.15;;;;;;;20.20;79.19;100251.88;4872293;29;20112;-79
2023/05/20 11:58:45;;;;;;;17.25;10.05;;;;;;;20.98;79.11;100241.16;4869970;29;20048;-80
2023/05/20 12:01:39;;;;;;;13.30;10.02;;;;;;;20.73;76.07;100256.56;4865810;29;20041;-78
2023/05/20 12:04:23;;;;;;;16.25;11.10;;;;;;;20.61;75.57;100253.91;4868704;29;20044;-79
2023/05/20 12:07:09;;;;;;;22.13;12.82;;;;;;;20.29;76.59;100256.88;4863136;29;20090;-79
2023/05/20 12:09:53;;;;;;;22.98;12.95;;;;;;;20.47;75.55;100248.00;4863590;29;20053;-78
2023/05/20 12:12:37;;;;;;;16.67;10.57;;;;;;;20.65;74.55;100255.88;4873476;29;20048;-79
2023/05/20 12:15:21;;;;;;;17.02;10.27;;;;;;;20.17;72.78;100247.00;4863457;29;20056;-79
2023/05/20 12:18:05;;;;;;;14.68;9.35;;;;;;;20.61;72.93;100246.69;4864178;29;20047;-79
2023/05/20 12:20:49;;;;;;;13.48;9.27;;;;;;;21.45;73.46;100234.09;4868186;29;20162;-79
2023/05/20 12:23:33;;;;;;;14.02;9.13;;;;;;;22.34;72.42;100237.25;4864774;29;20048;-79
2023/05/20 12:26:17;;;;;;;12.02;9.20;;;;;;;23.20;71.38;100232.59;4872365;29;20115;-79